createdAt,value
2018-11-22T00:02:15.381Z,65.83
2018-11-22T00:04:45.489Z,65.95
2018-11-22T00:07:15.245Z,65.85
2018-11-22T00:09:45.033Z,65.92
2018-11-22T00:12:14.834Z,65.95
2018-11-22T00:14:44.644Z,65.96
2018-11-22T00:17:14.942Z,65.98
2018-11-22T00:19:44.781Z,66.10
2018-11-22T00:22:14.687Z,66.08
2018-11-22T00:24:44.423Z,65.67
2018-11-22T00:27:14.620Z,65.71
2018-11-22T00:29:44.538Z,66.00
2018-11-22T00:32:14.298Z,65.95
2018-11-22T00:34:44.172Z,65.81
2018-11-22T00:37:14.381Z,65.78
2018-11-22T00:39:43.996Z,66.12
2018-11-22T00:42:13.903Z,65.73
2018-11-22T00:44:43.415Z,65.56
2018-11-22T00:47:13.331Z,65.55
2018-11-22T00:49:43.628Z,65.42
2018-11-22T00:52:13.569Z,65.54
2018-11-22T00:54:43.966Z,65.83
2018-11-22T00:57:13.904Z,65.83
2018-11-22T00:59:43.493Z,65.50
2018-11-22T01:02:13.671Z,65.61
2018-11-22T01:04:43.503Z,65.25
2018-11-22T01:07:13.092Z,65.00
2018-11-22T01:09:42.698Z,64.86
2018-11-22T01:12:12.579Z,65.16
2018-11-22T01:14:42.409Z,65.14
2018-11-22T01:17:12.548Z,65.45
2018-11-22T01:19:42.267Z,65.48
2018-11-22T01:22:11.833Z,65.01
2018-11-22T01:24:41.986Z,65.04
2018-11-22T01:27:11.564Z,65.40
2018-11-22T01:29:41.349Z,65.22
2018-11-22T01:32:12.010Z,65.14
2018-11-22T01:34:41.836Z,65.16
2018-11-22T01:37:12.237Z,64.90
2018-11-22T01:39:41.735Z,65.07
2018-11-22T01:42:11.562Z,65.22
2018-11-22T01:44:41.657Z,65.50
2018-11-22T01:47:11.784Z,65.41
2018-11-22T01:49:41.600Z,65.36
2018-11-22T01:52:11.520Z,65.47
2018-11-22T01:54:41.770Z,65.53
2018-11-22T01:57:12.461Z,65.18
2018-11-22T01:59:42.410Z,65.16
2018-11-22T02:02:12.310Z,65.03
2018-11-22T02:04:42.288Z,64.90
2018-11-22T02:07:12.126Z,65.23
2018-11-22T02:09:42.237Z,65.38
2018-11-22T02:12:11.916Z,65.56
2018-11-22T02:14:42.065Z,65.95
2018-11-22T02:17:12.597Z,65.59
2018-11-22T02:19:42.727Z,66.03
2018-11-22T02:22:13.062Z,66.09
2018-11-22T02:24:43.252Z,66.09
2018-11-22T02:27:13.109Z,66.24
2018-11-22T02:29:42.886Z,66.23
2018-11-22T02:32:12.801Z,66.05
2018-11-22T02:34:42.605Z,65.73
2018-11-22T02:37:13.026Z,65.38
2018-11-22T02:39:42.957Z,65.47
2018-11-22T02:42:13.086Z,65.77
2018-11-22T02:44:43.227Z,65.75
2018-11-22T02:47:13.444Z,65.99
2018-11-22T02:49:43.123Z,66.20
2018-11-22T02:52:13.095Z,66.00
2018-11-22T02:54:43.256Z,66.21
2018-11-22T02:57:13.450Z,66.29
2018-11-22T02:59:43.490Z,66.35
2018-11-22T03:02:13.455Z,66.51
2018-11-22T03:04:43.574Z,66.73
2018-11-22T03:07:13.441Z,66.46
2018-11-22T03:09:43.915Z,66.35
2018-11-22T03:12:13.484Z,66.52
2018-11-22T03:14:43.320Z,66.86
2018-11-22T03:17:13.205Z,66.61
2018-11-22T03:19:43.049Z,66.55
2018-11-22T03:22:12.827Z,66.90
2018-11-22T03:24:42.308Z,67.05
2018-11-22T03:27:12.048Z,66.79
2018-11-22T03:29:42.532Z,66.74
2018-11-22T03:32:12.677Z,66.57
2018-11-22T03:34:42.600Z,66.82
2018-11-22T03:37:12.714Z,66.93
2018-11-22T03:39:42.678Z,66.92
2018-11-22T03:42:13.069Z,66.84
2018-11-22T03:44:42.983Z,66.83
2018-11-22T03:47:12.884Z,66.68
2018-11-22T03:49:43.553Z,66.42
2018-11-22T03:52:14.678Z,66.74
2018-11-22T03:54:44.797Z,66.99
2018-11-22T03:57:14.405Z,67.03
2018-11-22T03:59:44.246Z,67.10
2018-11-22T04:02:14.970Z,67.08
2018-11-22T04:04:44.592Z,67.17
2018-11-22T04:07:14.184Z,67.33
2018-11-22T04:09:44.111Z,67.17
2018-11-22T04:12:14.298Z,67.43
2018-11-22T04:14:44.193Z,67.54
2018-11-22T04:17:13.675Z,67.45
2018-11-22T04:19:43.815Z,67.37
2018-11-22T04:22:14.836Z,67.45
2018-11-22T04:24:44.457Z,67.71
2018-11-22T04:27:15.012Z,67.60
2018-11-22T04:29:45.112Z,67.85
2018-11-22T04:32:14.985Z,67.87
2018-11-22T04:34:45.189Z,67.86
2018-11-22T04:37:15.131Z,67.74
2018-11-22T04:39:46.004Z,67.58
2018-11-22T04:42:15.492Z,67.62
2018-11-22T04:44:45.312Z,67.92
2018-11-22T04:47:15.492Z,67.90
2018-11-22T04:49:45.455Z,68.16
2018-11-22T04:52:15.684Z,67.87
2018-11-22T04:54:46.758Z,67.88
2018-11-22T04:57:16.667Z,67.97
2018-11-22T04:59:46.568Z,67.89
2018-11-22T05:02:16.690Z,67.73
2018-11-22T05:04:46.589Z,67.82
2018-11-22T05:07:17.712Z,67.81
2018-11-22T05:09:47.311Z,67.82
2018-11-22T05:12:17.425Z,67.75
2018-11-22T05:14:47.331Z,67.84
2018-11-22T05:17:17.771Z,67.80
2018-11-22T05:19:47.967Z,67.75
2018-11-22T05:22:18.799Z,67.67
2018-11-22T05:24:48.986Z,67.63
2018-11-22T05:27:19.804Z,67.91
2018-11-22T05:29:50.038Z,67.77
2018-11-22T05:32:20.248Z,67.84
2018-11-22T05:34:50.794Z,67.89
2018-11-22T05:37:21.024Z,67.91
2018-11-22T05:39:50.797Z,67.97
2018-11-22T05:42:20.980Z,67.81
2018-11-22T05:44:51.159Z,67.80
2018-11-22T05:47:21.139Z,67.87
2018-11-22T05:49:50.735Z,68.04
2018-11-22T05:52:20.674Z,67.96
2018-11-22T05:54:50.777Z,68.04
2018-11-22T05:57:20.853Z,67.91
2018-11-22T05:59:51.229Z,67.95
2018-11-22T06:02:21.193Z,67.90
2018-11-22T06:04:50.965Z,68.02
2018-11-22T06:07:20.474Z,68.21
2018-11-22T06:09:50.299Z,68.31
2018-11-22T06:12:20.278Z,68.28
2018-11-22T06:14:49.791Z,68.20
2018-11-22T06:17:19.665Z,68.22
2018-11-22T06:19:50.396Z,68.36
2018-11-22T06:22:20.279Z,68.31
2018-11-22T06:24:51.271Z,68.27
2018-11-22T06:27:21.116Z,68.49
2018-11-22T06:29:51.250Z,68.51
2018-11-22T06:32:21.237Z,68.48
2018-11-22T06:34:51.908Z,68.32
2018-11-22T06:37:21.562Z,68.37
2018-11-22T06:39:51.341Z,68.41
2018-11-22T06:42:21.223Z,68.42
2018-11-22T06:44:51.393Z,68.58
2018-11-22T06:47:20.877Z,68.57
2018-11-22T06:49:50.715Z,68.41
2018-11-22T06:52:20.954Z,68.18
2018-11-22T06:54:50.782Z,68.25
2018-11-22T06:57:20.797Z,68.40
2018-11-22T06:59:51.071Z,68.45
2018-11-22T07:02:21.327Z,68.54
2018-11-22T07:04:51.775Z,68.65
2018-11-22T07:07:21.372Z,68.51
2018-11-22T07:09:50.985Z,68.51
2018-11-22T07:12:20.929Z,68.67
2018-11-22T07:14:51.283Z,68.84
2018-11-22T07:17:21.576Z,68.69
2018-11-22T07:19:51.581Z,68.51
2018-11-22T07:22:21.749Z,68.34
2018-11-22T07:24:51.324Z,68.26
2018-11-22T07:27:21.139Z,68.18
2018-11-22T07:29:50.611Z,68.32
2018-11-22T07:32:20.898Z,68.25
2018-11-22T07:34:51.033Z,68.20
2018-11-22T07:37:20.819Z,68.42
2018-11-22T07:39:50.733Z,67.90
2018-11-22T07:42:20.303Z,68.21
2018-11-22T07:44:50.427Z,68.49
2018-11-22T07:47:20.544Z,68.46
2018-11-22T07:49:50.455Z,68.17
2018-11-22T07:52:20.461Z,68.24
2018-11-22T07:54:50.282Z,68.41
2018-11-22T07:57:20.200Z,68.24
2018-11-22T07:59:50.025Z,67.98
2018-11-22T08:02:20.548Z,68.14
2018-11-22T08:04:50.555Z,68.39
2018-11-22T08:07:20.141Z,68.35
2018-11-22T08:09:50.897Z,67.92
2018-11-22T08:12:25.790Z,67.95
2018-11-22T08:14:50.757Z,67.89
2018-11-22T08:17:21.495Z,67.68
2018-11-22T08:19:51.393Z,67.80
2018-11-22T08:22:21.678Z,67.72
2018-11-22T08:24:52.670Z,67.69
2018-11-22T08:27:22.635Z,67.51
2018-11-22T08:29:53.122Z,67.51
2018-11-22T08:32:22.633Z,67.26
2018-11-22T08:34:52.912Z,67.23
2018-11-22T08:37:22.814Z,67.13
2018-11-22T08:39:53.322Z,66.91
2018-11-22T08:42:23.463Z,67.01
2018-11-22T08:44:53.689Z,66.97
2018-11-22T08:47:23.796Z,66.91
2018-11-22T08:49:53.621Z,66.97
2018-11-22T08:52:23.212Z,66.66
2018-11-22T08:54:53.177Z,66.96
2018-11-22T08:57:24.295Z,66.78
2018-11-22T08:59:55.011Z,66.71
2018-11-22T09:02:25.137Z,66.51
2018-11-22T09:04:55.355Z,66.48
2018-11-22T09:07:25.999Z,66.54
2018-11-22T09:09:56.669Z,66.59
2018-11-22T09:12:26.741Z,66.68
2018-11-22T09:14:56.218Z,66.61
2018-11-22T09:17:26.369Z,66.12
2018-11-22T09:19:56.211Z,65.90
2018-11-22T09:22:26.163Z,65.79
2018-11-22T09:24:56.400Z,65.93
2018-11-22T09:27:26.677Z,65.74
2018-11-22T09:29:56.746Z,65.61
2018-11-22T09:32:27.064Z,65.35
2018-11-22T09:34:57.079Z,65.17
2018-11-22T09:37:27.387Z,65.07
2018-11-22T09:39:56.881Z,64.79
2018-11-22T09:42:26.534Z,65.00
2018-11-22T09:44:56.893Z,65.01
2018-11-22T09:47:26.953Z,65.25
2018-11-22T09:49:56.791Z,65.17
2018-11-22T09:52:27.269Z,64.86
2018-11-22T09:54:57.479Z,64.73
2018-11-22T09:57:27.385Z,64.65
2018-11-22T09:59:57.185Z,64.30
2018-11-22T10:02:27.270Z,64.33
2018-11-22T10:04:58.094Z,64.07
2018-11-22T10:07:28.146Z,63.58
2018-11-22T10:09:58.101Z,64.02
2018-11-22T10:12:28.223Z,63.95
2018-11-22T10:14:57.865Z,64.26
2018-11-22T10:17:28.232Z,63.75
2018-11-22T10:19:58.681Z,63.36
2018-11-22T10:22:29.550Z,63.45
2018-11-22T10:24:59.475Z,63.25
2018-11-22T10:27:30.377Z,63.40
2018-11-22T10:30:04.554Z,63.66
2018-11-22T10:32:34.331Z,63.68
2018-11-22T10:35:04.653Z,63.52
2018-11-22T10:37:34.778Z,63.02
2018-11-22T10:40:05.461Z,63.04
2018-11-22T10:42:35.545Z,62.97
2018-11-22T10:45:06.507Z,62.89
2018-11-22T10:47:36.469Z,62.94
2018-11-22T10:50:07.639Z,62.97
2018-11-22T10:52:37.650Z,62.99
2018-11-22T10:55:10.355Z,62.88
2018-11-22T10:57:41.740Z,62.58
2018-11-22T11:00:33.734Z,62.87
2018-11-22T11:03:21.109Z,62.62
2018-11-22T11:06:08.425Z,62.26
2018-11-22T11:08:38.268Z,62.19
2018-11-22T11:11:08.211Z,61.76
2018-11-22T11:13:38.132Z,61.47
2018-11-22T11:16:08.501Z,61.31
2018-11-22T11:18:38.907Z,61.17
2018-11-22T11:21:08.508Z,61.04
2018-11-22T12:16:40.515Z,60.80
2018-11-22T12:19:08.884Z,60.95
2018-11-22T12:21:37.061Z,61.00
2018-11-22T12:24:05.730Z,61.03
2018-11-22T12:26:33.921Z,60.72
2018-11-22T12:29:02.090Z,61.01
2018-11-22T12:31:30.269Z,60.58
2018-11-22T12:34:03.828Z,61.18
2018-11-22T12:37:39.177Z,61.03
2018-11-22T12:40:07.485Z,60.37
2018-11-22T12:42:35.648Z,60.41
2018-11-22T12:45:04.666Z,60.84
2018-11-22T12:47:33.540Z,60.65
2018-11-22T12:50:02.462Z,60.33
2018-11-22T12:52:30.607Z,60.71
2018-11-22T12:54:58.983Z,60.92
2018-11-22T12:57:27.503Z,60.98
2018-11-22T12:59:56.156Z,60.55
2018-11-22T13:02:24.565Z,61.03
2018-11-22T13:04:53.128Z,60.26
2018-11-22T13:07:21.302Z,60.26
2018-11-22T13:09:49.891Z,60.57
2018-11-22T13:12:18.117Z,60.00
2018-11-22T13:14:46.372Z,59.88
2018-11-22T13:17:14.521Z,59.91
2018-11-22T13:19:42.693Z,60.06
2018-11-22T13:22:10.892Z,59.26
2018-11-22T13:24:39.387Z,60.08
2018-11-22T13:27:07.613Z,60.36
2018-11-22T13:29:35.785Z,59.90
2018-11-22T13:32:03.969Z,60.24
2018-11-22T13:34:32.672Z,60.32
2018-11-22T13:37:00.928Z,60.51
2018-11-22T13:39:29.103Z,59.89
2018-11-22T13:41:57.253Z,59.64
2018-11-22T13:44:25.424Z,60.19
2018-11-22T13:46:53.599Z,60.77
2018-11-22T13:49:21.829Z,59.67
2018-11-22T13:51:50.036Z,59.78
2018-11-22T13:54:18.233Z,59.53
2018-11-22T13:56:46.395Z,59.35
2018-11-22T13:59:15.168Z,59.54
2018-11-22T14:01:43.328Z,60.30
2018-11-22T14:04:11.537Z,59.97
2018-11-22T14:06:39.688Z,59.44
2018-11-22T14:09:09.520Z,59.46
2018-11-22T14:11:37.697Z,59.79
2018-11-22T14:14:06.222Z,59.90
2018-11-22T14:16:34.395Z,60.17
2018-11-22T14:19:03.148Z,59.27
2018-11-22T14:21:31.319Z,59.84
2018-11-22T14:24:00.165Z,59.52
2018-11-22T14:26:28.338Z,59.22
2018-11-22T14:28:56.519Z,59.61
2018-11-22T14:31:24.943Z,59.07
2018-11-22T14:33:53.497Z,59.24
2018-11-22T14:36:21.733Z,59.13
2018-11-22T14:38:49.914Z,59.71
2018-11-22T14:41:18.071Z,58.84
2018-11-22T14:43:46.939Z,59.66
2018-11-22T14:46:15.138Z,59.11
2018-11-22T14:48:43.312Z,59.29
2018-11-22T14:51:15.923Z,59.50
2018-11-22T14:53:44.398Z,58.84
2018-11-22T14:56:12.595Z,59.29
2018-11-22T14:58:40.832Z,58.97
2018-11-22T15:01:09.038Z,59.32
2018-11-22T15:03:37.223Z,59.12
2018-11-22T15:06:05.656Z,59.42
2018-11-22T15:08:33.852Z,59.71
2018-11-22T15:11:02.025Z,59.57
2018-11-22T15:13:30.200Z,59.72
2018-11-22T15:15:58.396Z,59.70
2018-11-22T15:18:27.196Z,60.32
2018-11-22T15:21:01.120Z,60.50
2018-11-22T15:23:23.592Z,60.51
2018-11-22T15:25:51.731Z,60.85
2018-11-22T15:28:20.296Z,60.87
2018-11-22T15:30:48.443Z,59.77
2018-11-22T15:33:16.656Z,59.51
2018-11-22T15:35:44.859Z,59.75
2018-11-22T15:38:13.072Z,60.27
2018-11-22T15:40:41.873Z,60.48
2018-11-22T15:43:10.044Z,60.84
2018-11-22T15:45:38.228Z,60.42
2018-11-22T15:48:06.420Z,60.84
2018-11-22T15:50:34.950Z,60.91
2018-11-22T15:53:03.104Z,61.62
2018-11-22T15:55:31.293Z,61.61
2018-11-22T15:58:00.431Z,61.19
2018-11-22T16:00:32.113Z,62.31
2018-11-22T16:03:00.857Z,62.40
2018-11-22T16:05:29.436Z,61.69
2018-11-22T16:07:57.633Z,62.58
2018-11-22T16:30:34.562Z,63.15
2018-11-22T16:33:02.890Z,63.01
2018-11-22T16:35:33.552Z,63.15
2018-11-22T16:38:00.372Z,63.19
2018-11-22T16:40:29.442Z,62.64
2018-11-22T16:42:59.082Z,62.90
2018-11-22T16:45:30.630Z,62.95
2018-11-22T16:48:00.076Z,62.85
2018-11-22T16:50:29.514Z,63.16
2018-11-22T16:52:57.862Z,63.95
2018-11-22T16:55:26.882Z,64.19
2018-11-22T16:57:56.212Z,63.90
2018-11-22T17:00:33.639Z,63.67
2018-11-22T17:03:03.388Z,63.47
2018-11-22T17:05:31.732Z,63.94
2018-11-22T17:08:00.650Z,63.20
2018-11-22T17:10:30.084Z,63.74
2018-11-22T17:12:59.535Z,63.48
2018-11-22T17:15:29.382Z,63.60
2018-11-22T17:17:58.151Z,63.54
2018-11-22T17:20:27.271Z,63.90
2018-11-22T17:22:55.799Z,64.02
2018-11-22T17:25:25.333Z,64.02
2018-11-22T17:27:57.094Z,63.79
2018-11-22T17:30:27.860Z,64.25
2018-11-22T17:33:00.438Z,64.40
2018-11-22T17:35:29.370Z,65.07
2018-11-22T17:37:59.512Z,63.94
2018-11-22T17:40:38.010Z,64.37
2018-11-22T17:43:06.973Z,63.53
2018-11-22T17:45:37.679Z,64.00
2018-11-22T17:48:06.508Z,63.89
2018-11-22T17:50:36.561Z,64.92
2018-11-22T17:53:05.346Z,63.74
2018-11-22T17:55:34.162Z,65.08
2018-11-22T17:58:02.502Z,64.68
2018-11-22T18:00:32.326Z,64.62
2018-11-22T18:03:01.657Z,64.55
2018-11-22T18:05:29.898Z,64.94
2018-11-22T18:07:58.154Z,64.44
2018-11-22T18:10:27.916Z,64.64
2018-11-22T18:12:56.581Z,64.75
2018-11-22T18:15:25.879Z,64.70
2018-11-22T18:17:54.750Z,64.47
2018-11-22T18:20:27.442Z,64.72
2018-11-22T18:22:56.830Z,64.47
2018-11-22T18:25:27.622Z,64.72
2018-11-22T18:27:56.862Z,65.05
2018-11-22T18:30:27.528Z,65.25
2018-11-22T18:32:57.014Z,64.89
2018-11-22T18:35:25.291Z,64.64
2018-11-22T18:37:53.659Z,64.93
2018-11-22T18:40:24.110Z,65.13
2018-11-22T18:42:53.456Z,65.15
2018-11-22T18:45:27.115Z,64.93
2018-11-22T18:47:55.704Z,65.18
2018-11-22T18:50:25.100Z,64.78
2018-11-22T18:52:53.501Z,64.65
2018-11-22T18:55:21.945Z,65.30
2018-11-22T18:57:50.535Z,64.56
2018-11-22T19:00:22.269Z,65.13
2018-11-22T19:02:50.967Z,65.16
2018-11-22T19:05:19.691Z,65.30
2018-11-22T19:07:49.124Z,64.61
2018-11-22T19:10:36.630Z,65.08
2018-11-22T19:13:06.399Z,65.16
2018-11-22T19:15:36.718Z,66.14
2018-11-22T19:18:05.510Z,65.78
2018-11-22T19:20:35.315Z,66.39
2018-11-22T19:23:04.511Z,65.91
2018-11-22T19:25:32.767Z,66.28
2018-11-22T19:28:01.980Z,66.30
2018-11-22T19:30:37.078Z,66.28
2018-11-22T19:33:01.415Z,67.31
2018-11-22T19:35:31.733Z,66.85
2018-11-22T19:38:00.826Z,65.95
2018-11-22T19:40:30.440Z,67.26
2018-11-22T19:43:00.149Z,66.74
2018-11-22T19:45:29.949Z,66.97
2018-11-22T19:47:58.226Z,66.54
2018-11-22T19:50:27.526Z,67.01
2018-11-22T19:52:56.521Z,67.38
2018-11-22T19:55:27.390Z,66.78
2018-11-22T19:57:58.390Z,66.92
2018-11-22T20:00:27.281Z,66.90
2018-11-22T20:02:57.311Z,66.88
2018-11-22T20:05:26.400Z,67.95
2018-11-22T20:07:56.226Z,66.61
2018-11-22T20:10:27.023Z,66.45
2018-11-22T20:12:55.361Z,67.33
2018-11-22T20:15:23.699Z,66.80
2018-11-22T20:17:52.648Z,67.43
2018-11-22T20:20:21.579Z,67.16
2018-11-22T20:22:50.023Z,67.14
2018-11-22T20:25:18.295Z,68.15
2018-11-22T20:27:46.554Z,67.54
2018-11-22T20:30:17.021Z,67.88
2018-11-22T20:32:45.630Z,67.45
2018-11-22T20:35:15.570Z,67.76
2018-11-22T20:37:44.627Z,67.34
2018-11-22T20:40:14.258Z,67.41
2018-11-22T20:42:42.714Z,67.78
2018-11-22T20:45:12.930Z,68.03
2018-11-22T20:47:41.940Z,67.69
2018-11-22T20:50:12.628Z,68.14
2018-11-22T20:52:40.990Z,67.30
2018-11-22T20:55:13.646Z,67.91
2018-11-22T20:57:41.946Z,67.65
2018-11-22T21:00:13.550Z,67.74
2018-11-22T21:02:41.851Z,67.74
2018-11-22T21:05:11.117Z,68.72
2018-11-22T21:07:39.630Z,68.00
2018-11-22T21:10:10.226Z,67.39
2018-11-22T21:12:39.026Z,67.33
2018-11-22T21:15:11.406Z,67.40
2018-11-22T21:17:39.904Z,66.96
2018-11-22T21:20:09.403Z,67.44
2018-11-22T21:22:37.855Z,67.34
2018-11-22T21:25:07.973Z,67.44
2018-11-22T21:27:36.326Z,66.75
2018-11-22T21:30:07.537Z,68.04
2018-11-22T21:32:35.871Z,68.14
2018-11-22T21:35:04.625Z,67.92
2018-11-22T21:37:32.831Z,68.22
2018-11-22T21:40:01.065Z,67.81
2018-11-22T21:42:29.367Z,67.56
2018-11-22T21:44:57.685Z,67.27
2018-11-22T21:47:25.919Z,67.86
2018-11-22T21:49:54.122Z,67.97
2018-11-22T21:52:22.371Z,67.96
2018-11-22T21:54:50.660Z,68.31
2018-11-22T21:57:18.909Z,68.32
2018-11-22T21:59:47.178Z,68.04
2018-11-22T22:02:15.511Z,68.04
2018-11-22T22:04:43.731Z,68.36
2018-11-22T22:07:12.043Z,68.33
2018-11-22T22:09:40.475Z,67.61
2018-11-22T22:12:09.887Z,68.25
2018-11-22T22:14:38.226Z,68.60
2018-11-22T22:17:06.438Z,68.07
2018-11-22T22:19:34.744Z,68.58
2018-11-22T22:22:03.070Z,68.25
2018-11-22T22:24:31.415Z,67.85
2018-11-22T22:26:59.608Z,68.12
2018-11-22T22:29:27.838Z,67.79
2018-11-22T22:31:56.363Z,67.91
2018-11-22T22:34:24.637Z,68.50
2018-11-22T22:36:52.871Z,68.38
2018-11-22T22:39:21.261Z,67.82
2018-11-22T22:41:49.504Z,68.67
2018-11-22T22:44:17.822Z,68.74
2018-11-22T22:46:46.234Z,68.51
2018-11-22T22:49:14.607Z,67.96
2018-11-22T22:51:42.950Z,68.73
2018-11-22T22:54:11.208Z,68.69
2018-11-22T22:56:39.714Z,68.47
2018-11-22T22:59:08.634Z,68.76
2018-11-22T23:01:36.967Z,68.27
2018-11-22T23:04:05.395Z,67.83
2018-11-22T23:06:33.763Z,67.82
2018-11-22T23:09:02.228Z,68.62
2018-11-22T23:11:30.697Z,68.29
2018-11-22T23:13:59.412Z,68.33
2018-11-22T23:16:27.657Z,68.62
2018-11-22T23:18:55.927Z,68.62
2018-11-22T23:21:24.987Z,67.89
2018-11-22T23:23:53.501Z,67.87
2018-11-22T23:26:21.743Z,68.47
2018-11-22T23:28:49.982Z,68.80
2018-11-22T23:31:18.227Z,68.51
2018-11-22T23:33:46.461Z,68.70
2018-11-22T23:36:14.764Z,68.79
2018-11-22T23:38:43.060Z,68.70
2018-11-22T23:41:11.303Z,68.78
2018-11-22T23:43:39.533Z,68.70
2018-11-22T23:46:07.959Z,69.15
2018-11-22T23:48:36.287Z,68.56
2018-11-22T23:51:04.899Z,69.16
2018-11-22T23:53:33.171Z,68.72
2018-11-22T23:56:01.446Z,68.82
2018-11-22T23:58:29.760Z,68.75
